Sicily, Nebraska
Current Conditions -  °F | °C
As of 3:15 PM on Wednesday 26 Nov 2014 (Local Time) from KMYZ Reporting Station
Overcast Overcast  
Wind Chill: 19°   Ceiling: 2100
Heat Index: 32°   Visibility: 10mi
Dew Point: 23°   Wind: 22mph
Humidity: 69%   Direction: 330°NNW
Pressure: 30.23"   Gusts: 28mph
Location:  40.0663°N, 96.633°W
Report Text: KMYZ 262115Z AUTO 33019G24KT 10SM OVC021 00/M05 A3023 RMK AO2
Loading
Personal Weather Stations






























Interactive Weather Map New forecast layout! Learn more

10-Day Weather Forecast

Advertisements
Track Severe Weather on mobile